AFL1319 ULMM-UUEE
Flight info
| Callsign | AFL1319 |
|---|---|
| Flight time | 1h 59m |
| Altitude | 37000 |
| Route | ASGO2P ASGOR T693 PILAN P65 UREPI/M078F380 P65 ROMTA ROMT3F |
| Aircraft | B738/M-VGDW/C |
Departure
| Time | 2026-04-26 09:04 |
|---|---|
| Airport | Emperor Nicholas II Murmansk Airport (ULMM) |
Arrival
| Time | 2026-04-26 11:04 |
|---|---|
| Airport | Sheremetyevo International Airport (UUEE) |
| Time | Latitude | Longitude | Altitude | Speed | Heading |
|---|---|---|---|---|---|
| 2026-04-26 08:53 | 68.78483 | 32.75562 | 261 ft | 0 kts | 146° |
| 2026-04-26 08:59 | 68.78482 | 32.75564 | 261 ft | 1 kts | 146° |
| 2026-04-26 08:59 | 68.78470 | 32.75588 | 261 ft | 3 kts | 146° |
| 2026-04-26 08:59 | 68.78444 | 32.75613 | 261 ft | 7 kts | 182° |
| 2026-04-26 09:00 | 68.78401 | 32.75504 | 261 ft | 9 kts | 235° |
| 2026-04-26 09:00 | 68.78365 | 32.75358 | 261 ft | 9 kts | 236° |
| 2026-04-26 09:00 | 68.78331 | 32.75215 | 261 ft | 9 kts | 237° |
| 2026-04-26 09:00 | 68.78296 | 32.75075 | 262 ft | 9 kts | 230° |
| 2026-04-26 09:01 | 68.78229 | 32.75098 | 263 ft | 13 kts | 147° |
| 2026-04-26 09:01 | 68.78123 | 32.75295 | 262 ft | 24 kts | 146° |
| 2026-04-26 09:01 | 68.77959 | 32.75602 | 265 ft | 32 kts | 147° |
| 2026-04-26 09:01 | 68.77772 | 32.75944 | 267 ft | 31 kts | 146° |
| 2026-04-26 09:02 | 68.77599 | 32.76265 | 269 ft | 29 kts | 146° |
| 2026-04-26 09:02 | 68.77435 | 32.76568 | 271 ft | 27 kts | 146° |
| 2026-04-26 09:02 | 68.77338 | 32.76753 | 272 ft | 21 kts | 142° |
| 2026-04-26 09:02 | 68.77265 | 32.76875 | 274 ft | 6 kts | 240° |
| 2026-04-26 09:03 | 68.77277 | 32.76812 | 273 ft | 4 kts | 333° |
| 2026-04-26 09:03 | 68.77324 | 32.76772 | 274 ft | 15 kts | 332° |
| 2026-04-26 09:03 | 68.77462 | 32.76519 | 271 ft | 62 kts | 326° |
| 2026-04-26 09:03 | 68.78320 | 32.74930 | 271 ft | 155 kts | 326° |
| 2026-04-26 09:04 | 68.79269 | 32.73159 | 853 ft | 168 kts | 325° |
| 2026-04-26 09:04 | 68.80232 | 32.71347 | 1995 ft | 165 kts | 325° |
| 2026-04-26 09:04 | 68.80874 | 32.70151 | 2532 ft | 173 kts | 326° |
| 2026-04-26 09:04 | 68.82334 | 32.67413 | 2948 ft | 208 kts | 326° |
| 2026-04-26 09:05 | 68.83160 | 32.65865 | 3179 ft | 219 kts | 326° |
| 2026-04-26 09:05 | 68.84443 | 32.63448 | 3895 ft | 225 kts | 326° |
| 2026-04-26 09:05 | 68.85742 | 32.61004 | 4826 ft | 225 kts | 326° |
| 2026-04-26 09:05 | 68.86886 | 32.58033 | 5611 ft | 229 kts | 303° |
| 2026-04-26 09:06 | 68.87400 | 32.53707 | 5740 ft | 252 kts | 272° |
| 2026-04-26 09:06 | 68.86947 | 32.48891 | 6393 ft | 266 kts | 245° |
| 2026-04-26 09:06 | 68.85966 | 32.44496 | 7248 ft | 271 kts | 239° |
| 2026-04-26 09:06 | 68.84846 | 32.40246 | 8075 ft | 277 kts | 229° |
| 2026-04-26 09:07 | 68.83213 | 32.37316 | 8884 ft | 287 kts | 199° |
| 2026-04-26 09:07 | 68.81249 | 32.36842 | 9716 ft | 293 kts | 169° |
| 2026-04-26 09:07 | 68.79367 | 32.39064 | 10396 ft | 299 kts | 146° |
| 2026-04-26 09:07 | 68.77637 | 32.42330 | 11125 ft | 304 kts | 144° |
| 2026-04-26 09:08 | 68.75897 | 32.45720 | 11921 ft | 307 kts | 144° |
| 2026-04-26 09:08 | 68.74137 | 32.49120 | 12717 ft | 310 kts | 144° |
| 2026-04-26 09:08 | 68.72352 | 32.52509 | 13511 ft | 314 kts | 145° |
| 2026-04-26 09:08 | 68.70535 | 32.55911 | 14213 ft | 317 kts | 145° |
| 2026-04-26 09:09 | 68.68687 | 32.59347 | 14929 ft | 320 kts | 145° |
| 2026-04-26 09:09 | 68.66785 | 32.62502 | 15563 ft | 327 kts | 155° |
| 2026-04-26 09:09 | 68.64577 | 32.64760 | 15751 ft | 347 kts | 162° |
| 2026-04-26 09:09 | 68.62237 | 32.66834 | 15920 ft | 366 kts | 162° |
| 2026-04-26 09:10 | 68.59748 | 32.69053 | 16281 ft | 379 kts | 161° |
| 2026-04-26 09:10 | 68.57225 | 32.71387 | 16928 ft | 383 kts | 161° |
| 2026-04-26 09:10 | 68.54734 | 32.73740 | 17631 ft | 385 kts | 161° |
| 2026-04-26 09:10 | 68.52164 | 32.76084 | 18246 ft | 389 kts | 166° |
| 2026-04-26 09:11 | 68.49468 | 32.76746 | 18786 ft | 391 kts | 184° |
| 2026-04-26 09:11 | 68.46741 | 32.76263 | 19366 ft | 394 kts | 184° |
| 2026-04-26 09:11 | 68.43994 | 32.75858 | 19906 ft | 398 kts | 183° |
| 2026-04-26 09:11 | 68.41202 | 32.75557 | 20437 ft | 402 kts | 181° |
| 2026-04-26 09:12 | 68.38393 | 32.75508 | 20985 ft | 406 kts | 180° |
| 2026-04-26 09:12 | 68.35553 | 32.75589 | 21515 ft | 409 kts | 179° |
| 2026-04-26 09:12 | 68.32692 | 32.75701 | 22036 ft | 413 kts | 179° |
| 2026-04-26 09:12 | 68.29848 | 32.75801 | 22562 ft | 416 kts | 179° |
| 2026-04-26 09:13 | 68.26945 | 32.75882 | 23077 ft | 419 kts | 179° |
| 2026-04-26 09:13 | 68.24023 | 32.75944 | 23514 ft | 422 kts | 179° |
| 2026-04-26 09:13 | 68.21079 | 32.75996 | 23927 ft | 424 kts | 180° |
| 2026-04-26 09:13 | 68.18113 | 32.76041 | 24326 ft | 427 kts | 180° |
| 2026-04-26 09:14 | 68.15131 | 32.76084 | 24702 ft | 430 kts | 180° |
| 2026-04-26 09:14 | 68.12125 | 32.76128 | 25077 ft | 433 kts | 180° |
| 2026-04-26 09:14 | 68.09100 | 32.76172 | 25447 ft | 436 kts | 180° |
| 2026-04-26 09:14 | 68.06058 | 32.76217 | 25838 ft | 438 kts | 180° |
| 2026-04-26 09:15 | 68.02981 | 32.76264 | 26181 ft | 441 kts | 180° |
| 2026-04-26 09:15 | 67.99908 | 32.76309 | 26571 ft | 443 kts | 180° |
| 2026-04-26 09:15 | 67.96810 | 32.76366 | 26921 ft | 446 kts | 180° |
| 2026-04-26 09:15 | 67.93703 | 32.76470 | 27285 ft | 447 kts | 180° |
| 2026-04-26 09:16 | 67.90585 | 32.76599 | 27608 ft | 450 kts | 180° |
| 2026-04-26 09:16 | 67.87446 | 32.76735 | 27961 ft | 451 kts | 180° |
| 2026-04-26 09:16 | 67.84300 | 32.76868 | 28316 ft | 453 kts | 180° |
| 2026-04-26 09:16 | 67.81183 | 32.76996 | 28614 ft | 455 kts | 180° |
| 2026-04-26 09:17 | 67.78010 | 32.77123 | 28933 ft | 457 kts | 180° |
| 2026-04-26 09:17 | 67.74826 | 32.77248 | 29243 ft | 459 kts | 180° |
| 2026-04-26 09:17 | 67.71620 | 32.77372 | 29524 ft | 461 kts | 180° |
| 2026-04-26 09:17 | 67.68406 | 32.77494 | 29777 ft | 463 kts | 180° |
| 2026-04-26 09:18 | 67.65175 | 32.77618 | 30063 ft | 464 kts | 180° |
| 2026-04-26 09:18 | 67.61947 | 32.77741 | 30371 ft | 463 kts | 180° |
| 2026-04-26 09:18 | 67.58724 | 32.77862 | 30661 ft | 463 kts | 180° |
| 2026-04-26 09:18 | 67.55489 | 32.77985 | 30920 ft | 464 kts | 180° |
| 2026-04-26 09:19 | 67.52252 | 32.78106 | 31195 ft | 464 kts | 180° |
| 2026-04-26 09:19 | 67.49066 | 32.78227 | 31473 ft | 464 kts | 180° |
| 2026-04-26 09:19 | 67.45841 | 32.78607 | 31750 ft | 465 kts | 175° |
| 2026-04-26 09:19 | 67.42657 | 32.80171 | 32012 ft | 466 kts | 165° |
| 2026-04-26 09:20 | 67.39550 | 32.82548 | 32291 ft | 466 kts | 165° |
| 2026-04-26 09:20 | 67.36442 | 32.84989 | 32565 ft | 466 kts | 164° |
| 2026-04-26 09:20 | 67.33333 | 32.87426 | 32819 ft | 466 kts | 165° |
| 2026-04-26 09:20 | 67.30215 | 32.89836 | 33084 ft | 466 kts | 165° |
| 2026-04-26 09:21 | 67.27104 | 32.92208 | 33347 ft | 466 kts | 165° |
| 2026-04-26 09:21 | 67.23988 | 32.94555 | 33595 ft | 467 kts | 165° |
| 2026-04-26 09:21 | 67.20873 | 32.96882 | 33803 ft | 467 kts | 165° |
| 2026-04-26 09:21 | 67.17749 | 32.99202 | 34009 ft | 467 kts | 165° |
| 2026-04-26 09:22 | 67.14627 | 33.01511 | 34230 ft | 466 kts | 165° |
| 2026-04-26 09:22 | 67.11506 | 33.03814 | 34427 ft | 466 kts | 165° |
| 2026-04-26 09:22 | 67.08431 | 33.06077 | 34623 ft | 466 kts | 165° |
| 2026-04-26 09:22 | 67.05324 | 33.08360 | 34819 ft | 466 kts | 165° |
| 2026-04-26 09:23 | 67.02200 | 33.10649 | 35024 ft | 465 kts | 165° |
| 2026-04-26 09:23 | 66.99087 | 33.12924 | 35214 ft | 465 kts | 165° |
| 2026-04-26 09:23 | 66.95975 | 33.15193 | 35399 ft | 465 kts | 165° |
| 2026-04-26 09:23 | 66.92857 | 33.17461 | 35574 ft | 465 kts | 165° |
| 2026-04-26 09:24 | 66.89743 | 33.19720 | 35751 ft | 465 kts | 165° |
| 2026-04-26 09:24 | 66.86629 | 33.21973 | 35921 ft | 465 kts | 165° |
| 2026-04-26 09:24 | 66.83519 | 33.24217 | 36108 ft | 465 kts | 165° |
| 2026-04-26 09:24 | 66.80409 | 33.26454 | 36275 ft | 464 kts | 165° |
| 2026-04-26 09:25 | 66.77303 | 33.28683 | 36439 ft | 464 kts | 165° |
| 2026-04-26 09:25 | 66.74191 | 33.30910 | 36583 ft | 464 kts | 165° |
| 2026-04-26 09:25 | 66.71079 | 33.33132 | 36667 ft | 464 kts | 165° |
| 2026-04-26 09:26 | 66.64858 | 33.37557 | 36679 ft | 464 kts | 165° |
| 2026-04-26 09:26 | 66.58645 | 33.41952 | 36680 ft | 464 kts | 165° |
| 2026-04-26 09:27 | 66.52428 | 33.46327 | 36680 ft | 464 kts | 165° |
| 2026-04-26 09:27 | 66.46207 | 33.50684 | 36686 ft | 464 kts | 166° |
| 2026-04-26 09:28 | 66.39982 | 33.55021 | 36676 ft | 464 kts | 166° |
| 2026-04-26 09:28 | 66.33797 | 33.59298 | 36679 ft | 464 kts | 166° |
| 2026-04-26 09:29 | 66.27574 | 33.63557 | 36678 ft | 464 kts | 166° |
| 2026-04-26 09:29 | 66.21348 | 33.67796 | 36676 ft | 464 kts | 166° |
| 2026-04-26 09:30 | 66.15126 | 33.72016 | 36680 ft | 463 kts | 166° |
| 2026-04-26 09:30 | 66.08899 | 33.76220 | 36676 ft | 463 kts | 166° |
| 2026-04-26 09:31 | 66.02685 | 33.80394 | 36681 ft | 463 kts | 166° |
| 2026-04-26 09:31 | 65.96471 | 33.84547 | 36662 ft | 463 kts | 166° |
| 2026-04-26 09:32 | 65.90245 | 33.88675 | 36676 ft | 463 kts | 166° |
| 2026-04-26 09:32 | 65.84027 | 33.92768 | 36670 ft | 463 kts | 166° |
| 2026-04-26 09:33 | 65.77813 | 33.96847 | 36658 ft | 463 kts | 166° |
| 2026-04-26 09:33 | 65.71635 | 34.00880 | 36660 ft | 463 kts | 166° |
| 2026-04-26 09:34 | 65.65419 | 34.04920 | 36663 ft | 462 kts | 166° |
| 2026-04-26 09:34 | 65.59204 | 34.08935 | 36657 ft | 462 kts | 167° |
| 2026-04-26 09:35 | 65.52985 | 34.12939 | 36655 ft | 463 kts | 166° |
| 2026-04-26 09:35 | 65.46769 | 34.16922 | 36653 ft | 462 kts | 167° |
| 2026-04-26 09:36 | 65.40543 | 34.20890 | 36653 ft | 462 kts | 167° |
| 2026-04-26 09:36 | 65.34315 | 34.24837 | 36652 ft | 462 kts | 167° |
| 2026-04-26 09:37 | 65.28123 | 34.28739 | 36651 ft | 462 kts | 167° |
| 2026-04-26 09:37 | 65.21908 | 34.32643 | 36648 ft | 461 kts | 167° |
| 2026-04-26 09:38 | 65.15711 | 34.36519 | 36649 ft | 461 kts | 167° |
| 2026-04-26 09:38 | 65.09488 | 34.40389 | 36646 ft | 461 kts | 167° |
| 2026-04-26 09:39 | 65.03284 | 34.44228 | 36647 ft | 461 kts | 167° |
| 2026-04-26 09:39 | 64.97078 | 34.48053 | 36643 ft | 460 kts | 167° |
| 2026-04-26 09:40 | 64.90915 | 34.52066 | 36639 ft | 461 kts | 164° |
| 2026-04-26 09:40 | 64.84792 | 34.56681 | 36641 ft | 461 kts | 163° |
| 2026-04-26 09:41 | 64.78706 | 34.61281 | 36637 ft | 461 kts | 164° |
| 2026-04-26 09:41 | 64.72604 | 34.65783 | 36632 ft | 461 kts | 164° |
| 2026-04-26 09:42 | 64.66494 | 34.70228 | 36628 ft | 461 kts | 164° |
| 2026-04-26 09:42 | 64.60364 | 34.74665 | 36628 ft | 461 kts | 164° |
| 2026-04-26 09:43 | 64.54239 | 34.79084 | 36619 ft | 461 kts | 164° |
| 2026-04-26 09:43 | 64.48108 | 34.83488 | 36618 ft | 461 kts | 164° |
| 2026-04-26 09:44 | 64.41976 | 34.87939 | 36614 ft | 462 kts | 163° |
| 2026-04-26 09:44 | 64.35874 | 34.92537 | 36607 ft | 462 kts | 163° |
| 2026-04-26 09:45 | 64.29756 | 34.97134 | 36607 ft | 462 kts | 163° |
| 2026-04-26 09:45 | 64.23676 | 35.01653 | 36600 ft | 462 kts | 163° |
| 2026-04-26 09:46 | 64.17553 | 35.06175 | 36597 ft | 462 kts | 163° |
| 2026-04-26 09:46 | 64.11455 | 35.10661 | 36594 ft | 462 kts | 163° |
| 2026-04-26 09:47 | 64.05333 | 35.15173 | 36588 ft | 462 kts | 163° |
| 2026-04-26 09:47 | 63.99258 | 35.20031 | 36583 ft | 462 kts | 162° |
| 2026-04-26 09:48 | 63.93192 | 35.24955 | 36578 ft | 463 kts | 162° |
| 2026-04-26 09:48 | 63.87158 | 35.29773 | 36569 ft | 462 kts | 162° |
| 2026-04-26 09:49 | 63.81047 | 35.34609 | 36565 ft | 462 kts | 162° |
| 2026-04-26 09:49 | 63.75008 | 35.39360 | 36562 ft | 462 kts | 162° |
| 2026-04-26 09:50 | 63.68954 | 35.44094 | 36557 ft | 461 kts | 162° |
| 2026-04-26 09:50 | 63.62893 | 35.48813 | 36548 ft | 460 kts | 163° |
| 2026-04-26 09:51 | 63.56802 | 35.53218 | 36544 ft | 459 kts | 165° |
| 2026-04-26 09:51 | 63.50689 | 35.57437 | 36534 ft | 459 kts | 164° |
| 2026-04-26 09:52 | 63.44592 | 35.61664 | 36529 ft | 459 kts | 164° |
| 2026-04-26 09:52 | 63.35452 | 35.68019 | 36522 ft | 459 kts | 164° |
| 2026-04-26 09:53 | 63.29395 | 35.72214 | 36509 ft | 458 kts | 164° |
| 2026-04-26 09:53 | 63.23309 | 35.76412 | 36507 ft | 458 kts | 164° |
| 2026-04-26 09:54 | 63.17215 | 35.80597 | 36506 ft | 458 kts | 164° |
| 2026-04-26 09:54 | 63.11117 | 35.84770 | 36500 ft | 459 kts | 164° |
| 2026-04-26 09:55 | 63.06043 | 35.88251 | 36484 ft | 460 kts | 164° |
| 2026-04-26 09:55 | 62.99930 | 35.92433 | 36482 ft | 459 kts | 164° |
| 2026-04-26 09:56 | 62.93827 | 35.96593 | 36474 ft | 459 kts | 164° |
| 2026-04-26 09:56 | 62.87721 | 36.00732 | 36469 ft | 459 kts | 164° |
| 2026-04-26 09:57 | 62.81618 | 36.04824 | 36459 ft | 458 kts | 165° |
| 2026-04-26 09:57 | 62.75505 | 36.08892 | 36455 ft | 458 kts | 165° |
| 2026-04-26 09:58 | 62.69454 | 36.12903 | 36448 ft | 457 kts | 165° |
| 2026-04-26 09:58 | 62.63364 | 36.16929 | 36442 ft | 457 kts | 165° |
| 2026-04-26 09:59 | 62.57286 | 36.20928 | 36433 ft | 456 kts | 165° |
| 2026-04-26 09:59 | 62.51211 | 36.24909 | 36427 ft | 455 kts | 165° |
| 2026-04-26 10:00 | 62.45139 | 36.28872 | 36423 ft | 455 kts | 165° |
| 2026-04-26 10:00 | 62.39086 | 36.32807 | 36421 ft | 454 kts | 165° |
| 2026-04-26 10:01 | 62.33032 | 36.36724 | 36413 ft | 454 kts | 165° |
| 2026-04-26 10:01 | 62.26987 | 36.40618 | 36414 ft | 453 kts | 165° |
| 2026-04-26 10:02 | 62.20942 | 36.44498 | 36402 ft | 453 kts | 165° |
| 2026-04-26 10:02 | 62.14901 | 36.48357 | 36408 ft | 453 kts | 165° |
| 2026-04-26 10:03 | 62.08899 | 36.52176 | 36412 ft | 453 kts | 165° |
| 2026-04-26 10:03 | 62.02841 | 36.56016 | 36410 ft | 455 kts | 165° |
| 2026-04-26 10:04 | 61.96754 | 36.59860 | 36401 ft | 458 kts | 165° |
| 2026-04-26 10:04 | 61.90634 | 36.63707 | 36394 ft | 459 kts | 165° |
| 2026-04-26 10:05 | 61.84508 | 36.67543 | 36404 ft | 459 kts | 165° |
| 2026-04-26 10:05 | 61.78371 | 36.71371 | 36400 ft | 459 kts | 165° |
| 2026-04-26 10:06 | 61.72248 | 36.75180 | 36393 ft | 458 kts | 165° |
| 2026-04-26 10:06 | 61.66144 | 36.78964 | 36389 ft | 457 kts | 165° |
| 2026-04-26 10:07 | 61.60062 | 36.82718 | 36387 ft | 455 kts | 165° |
| 2026-04-26 10:07 | 61.54005 | 36.86439 | 36388 ft | 454 kts | 165° |
| 2026-04-26 10:08 | 61.47932 | 36.90157 | 36387 ft | 452 kts | 166° |
| 2026-04-26 10:08 | 61.41895 | 36.93838 | 36388 ft | 451 kts | 165° |
| 2026-04-26 10:09 | 61.35882 | 36.97489 | 36388 ft | 451 kts | 166° |
| 2026-04-26 10:09 | 61.29862 | 37.01131 | 36387 ft | 452 kts | 166° |
| 2026-04-26 10:10 | 61.23841 | 37.04922 | 36377 ft | 453 kts | 165° |
| 2026-04-26 10:10 | 61.17821 | 37.08820 | 36386 ft | 453 kts | 165° |
| 2026-04-26 10:11 | 61.11802 | 37.12686 | 36386 ft | 453 kts | 165° |
| 2026-04-26 10:11 | 61.05757 | 37.16532 | 36385 ft | 455 kts | 165° |
| 2026-04-26 10:12 | 60.99699 | 37.20365 | 36376 ft | 456 kts | 165° |
| 2026-04-26 10:12 | 60.93674 | 37.24164 | 36380 ft | 456 kts | 165° |
| 2026-04-26 10:13 | 60.87599 | 37.27981 | 36374 ft | 457 kts | 165° |
| 2026-04-26 10:13 | 60.81516 | 37.31785 | 36385 ft | 457 kts | 165° |
| 2026-04-26 10:14 | 60.75402 | 37.35589 | 36378 ft | 459 kts | 165° |
| 2026-04-26 10:14 | 60.69273 | 37.39389 | 36373 ft | 460 kts | 165° |
| 2026-04-26 10:15 | 60.63141 | 37.43178 | 36363 ft | 460 kts | 165° |
| 2026-04-26 10:15 | 60.57067 | 37.46917 | 36375 ft | 458 kts | 165° |
| 2026-04-26 10:16 | 60.50973 | 37.50654 | 36361 ft | 456 kts | 165° |
| 2026-04-26 10:16 | 60.44905 | 37.54327 | 36367 ft | 454 kts | 167° |
| 2026-04-26 10:17 | 60.38791 | 37.57429 | 36363 ft | 452 kts | 169° |
| 2026-04-26 10:17 | 60.32665 | 37.60349 | 36364 ft | 451 kts | 169° |
| 2026-04-26 10:18 | 60.26593 | 37.63308 | 36368 ft | 451 kts | 168° |
| 2026-04-26 10:18 | 60.20496 | 37.66317 | 36370 ft | 451 kts | 168° |
| 2026-04-26 10:19 | 60.14388 | 37.69328 | 36368 ft | 452 kts | 168° |
| 2026-04-26 10:19 | 60.08266 | 37.72331 | 36371 ft | 453 kts | 169° |
| 2026-04-26 10:20 | 60.03163 | 37.74824 | 36365 ft | 454 kts | 169° |
| 2026-04-26 10:20 | 59.95931 | 37.77851 | 36369 ft | 454 kts | 172° |
| 2026-04-26 10:21 | 59.89739 | 37.80044 | 36367 ft | 455 kts | 172° |
| 2026-04-26 10:21 | 59.83486 | 37.82306 | 36366 ft | 456 kts | 172° |
| 2026-04-26 10:22 | 59.77240 | 37.84612 | 36360 ft | 457 kts | 172° |
| 2026-04-26 10:22 | 59.70997 | 37.86915 | 36365 ft | 457 kts | 172° |
| 2026-04-26 10:23 | 59.64742 | 37.89158 | 36358 ft | 456 kts | 173° |
| 2026-04-26 10:23 | 59.58491 | 37.91308 | 36351 ft | 456 kts | 173° |
| 2026-04-26 10:24 | 59.52246 | 37.93475 | 36359 ft | 455 kts | 173° |
| 2026-04-26 10:24 | 59.46012 | 37.95636 | 36359 ft | 455 kts | 173° |
| 2026-04-26 10:25 | 59.39808 | 37.97778 | 36355 ft | 454 kts | 173° |
| 2026-04-26 10:25 | 59.33554 | 37.99927 | 36576 ft | 456 kts | 173° |
| 2026-04-26 10:26 | 59.30433 | 38.00998 | 36844 ft | 454 kts | 173° |
| 2026-04-26 10:26 | 59.27314 | 38.01761 | 37030 ft | 451 kts | 180° |
| 2026-04-26 10:26 | 59.21081 | 38.01064 | 37263 ft | 448 kts | 188° |
| 2026-04-26 10:27 | 59.14875 | 37.99909 | 37354 ft | 450 kts | 188° |
| 2026-04-26 10:27 | 59.08621 | 37.98831 | 37356 ft | 450 kts | 188° |
| 2026-04-26 10:28 | 59.02371 | 37.97816 | 37352 ft | 450 kts | 188° |
| 2026-04-26 10:28 | 58.96161 | 37.96818 | 37354 ft | 450 kts | 188° |
| 2026-04-26 10:29 | 58.89913 | 37.95813 | 37358 ft | 450 kts | 188° |
| 2026-04-26 10:29 | 58.83678 | 37.94814 | 37368 ft | 450 kts | 188° |
| 2026-04-26 10:30 | 58.77432 | 37.93822 | 37356 ft | 450 kts | 188° |
| 2026-04-26 10:30 | 58.71181 | 37.92832 | 37354 ft | 450 kts | 188° |
| 2026-04-26 10:31 | 58.64984 | 37.91882 | 37355 ft | 449 kts | 187° |
| 2026-04-26 10:31 | 58.58755 | 37.91041 | 37355 ft | 448 kts | 187° |
| 2026-04-26 10:32 | 58.52531 | 37.90218 | 37365 ft | 448 kts | 187° |
| 2026-04-26 10:32 | 58.46319 | 37.89387 | 37362 ft | 447 kts | 187° |
| 2026-04-26 10:33 | 58.40109 | 37.88550 | 37357 ft | 447 kts | 187° |
| 2026-04-26 10:33 | 58.33907 | 37.87717 | 37360 ft | 447 kts | 187° |
| 2026-04-26 10:34 | 58.27696 | 37.86885 | 37366 ft | 446 kts | 187° |
| 2026-04-26 10:34 | 58.24680 | 37.86486 | 37346 ft | 433 kts | 187° |
| 2026-04-26 10:34 | 58.21722 | 37.86098 | 37350 ft | 420 kts | 187° |
| 2026-04-26 10:35 | 58.15957 | 37.85332 | 37340 ft | 417 kts | 188° |
| 2026-04-26 10:35 | 58.13011 | 37.84932 | 36774 ft | 431 kts | 188° |
| 2026-04-26 10:35 | 58.09990 | 37.84523 | 36158 ft | 435 kts | 187° |
| 2026-04-26 10:36 | 58.06985 | 37.84127 | 35445 ft | 432 kts | 188° |
| 2026-04-26 10:36 | 58.04022 | 37.83743 | 35197 ft | 417 kts | 188° |
| 2026-04-26 10:36 | 58.01181 | 37.83379 | 34975 ft | 403 kts | 188° |
| 2026-04-26 10:36 | 57.98364 | 37.83008 | 34094 ft | 407 kts | 188° |
| 2026-04-26 10:37 | 57.95547 | 37.82634 | 33461 ft | 405 kts | 188° |
| 2026-04-26 10:37 | 57.92774 | 37.82267 | 32720 ft | 403 kts | 188° |
| 2026-04-26 10:37 | 57.89993 | 37.81902 | 32152 ft | 402 kts | 188° |
| 2026-04-26 10:37 | 57.87159 | 37.81525 | 31605 ft | 414 kts | 189° |
| 2026-04-26 10:38 | 57.84267 | 37.81144 | 31044 ft | 420 kts | 189° |
| 2026-04-26 10:38 | 57.81345 | 37.80762 | 30492 ft | 419 kts | 189° |
| 2026-04-26 10:38 | 57.78449 | 37.80362 | 29956 ft | 417 kts | 189° |
| 2026-04-26 10:38 | 57.75562 | 37.79949 | 29402 ft | 415 kts | 189° |
| 2026-04-26 10:39 | 57.72683 | 37.79532 | 28782 ft | 414 kts | 189° |
| 2026-04-26 10:39 | 57.69817 | 37.79118 | 28176 ft | 411 kts | 189° |
| 2026-04-26 10:39 | 57.66982 | 37.78714 | 27511 ft | 405 kts | 189° |
| 2026-04-26 10:39 | 57.64199 | 37.78320 | 26903 ft | 397 kts | 189° |
| 2026-04-26 10:40 | 57.61472 | 37.77935 | 26360 ft | 388 kts | 189° |
| 2026-04-26 10:40 | 57.58842 | 37.77564 | 25824 ft | 381 kts | 189° |
| 2026-04-26 10:40 | 57.56224 | 37.77192 | 25319 ft | 375 kts | 189° |
| 2026-04-26 10:40 | 57.53631 | 37.76821 | 24810 ft | 372 kts | 189° |
| 2026-04-26 10:41 | 57.51058 | 37.76455 | 24376 ft | 370 kts | 189° |
| 2026-04-26 10:41 | 57.48484 | 37.76090 | 23931 ft | 371 kts | 189° |
| 2026-04-26 10:41 | 57.45903 | 37.75727 | 23513 ft | 374 kts | 189° |
| 2026-04-26 10:41 | 57.43307 | 37.75381 | 23073 ft | 374 kts | 189° |
| 2026-04-26 10:42 | 57.40711 | 37.75047 | 22587 ft | 372 kts | 189° |
| 2026-04-26 10:42 | 57.39001 | 37.74828 | 22251 ft | 371 kts | 189° |
| 2026-04-26 10:42 | 57.35562 | 37.74388 | 21588 ft | 369 kts | 189° |
| 2026-04-26 10:42 | 57.33028 | 37.74062 | 21102 ft | 368 kts | 189° |
| 2026-04-26 10:43 | 57.30480 | 37.73733 | 20629 ft | 367 kts | 189° |
| 2026-04-26 10:43 | 57.27937 | 37.73404 | 20163 ft | 366 kts | 189° |
| 2026-04-26 10:43 | 57.25395 | 37.73076 | 19695 ft | 365 kts | 189° |
| 2026-04-26 10:43 | 57.22868 | 37.72750 | 19238 ft | 363 kts | 189° |
| 2026-04-26 10:44 | 57.20348 | 37.72425 | 18786 ft | 361 kts | 189° |
| 2026-04-26 10:44 | 57.17842 | 37.72103 | 18341 ft | 360 kts | 189° |
| 2026-04-26 10:44 | 57.15357 | 37.71783 | 17901 ft | 358 kts | 188° |
| 2026-04-26 10:44 | 57.12868 | 37.71464 | 17454 ft | 357 kts | 188° |
| 2026-04-26 10:45 | 57.10386 | 37.71113 | 16948 ft | 356 kts | 191° |
| 2026-04-26 10:45 | 57.07962 | 37.70376 | 16526 ft | 350 kts | 196° |
| 2026-04-26 10:45 | 57.05615 | 37.69419 | 16266 ft | 342 kts | 198° |
| 2026-04-26 10:45 | 57.03326 | 37.68423 | 16018 ft | 335 kts | 198° |
| 2026-04-26 10:46 | 57.01834 | 37.67771 | 15855 ft | 332 kts | 198° |
| 2026-04-26 10:46 | 56.99599 | 37.66808 | 15615 ft | 329 kts | 198° |
| 2026-04-26 10:46 | 56.97358 | 37.65861 | 15391 ft | 332 kts | 197° |
| 2026-04-26 10:46 | 56.95092 | 37.64917 | 15162 ft | 336 kts | 197° |
| 2026-04-26 10:47 | 56.92804 | 37.63977 | 14930 ft | 337 kts | 197° |
| 2026-04-26 10:47 | 56.90522 | 37.63051 | 14705 ft | 335 kts | 197° |
| 2026-04-26 10:47 | 56.88251 | 37.62138 | 14469 ft | 333 kts | 197° |
| 2026-04-26 10:47 | 56.85989 | 37.61231 | 14225 ft | 332 kts | 197° |
| 2026-04-26 10:48 | 56.83733 | 37.60328 | 14013 ft | 331 kts | 196° |
| 2026-04-26 10:48 | 56.81485 | 37.59431 | 13783 ft | 330 kts | 196° |
| 2026-04-26 10:48 | 56.79245 | 37.58538 | 13569 ft | 330 kts | 196° |
| 2026-04-26 10:48 | 56.77002 | 37.57645 | 13345 ft | 330 kts | 196° |
| 2026-04-26 10:49 | 56.74762 | 37.56754 | 13113 ft | 329 kts | 196° |
| 2026-04-26 10:49 | 56.72523 | 37.55866 | 12858 ft | 328 kts | 196° |
| 2026-04-26 10:49 | 56.70326 | 37.54995 | 12608 ft | 325 kts | 196° |
| 2026-04-26 10:49 | 56.68134 | 37.54129 | 12360 ft | 318 kts | 196° |
| 2026-04-26 10:50 | 56.65977 | 37.53278 | 12111 ft | 312 kts | 196° |
| 2026-04-26 10:50 | 56.63870 | 37.52447 | 11864 ft | 307 kts | 196° |
| 2026-04-26 10:50 | 56.61826 | 37.51641 | 11620 ft | 302 kts | 196° |
| 2026-04-26 10:50 | 56.59786 | 37.50837 | 11372 ft | 297 kts | 196° |
| 2026-04-26 10:51 | 56.57784 | 37.50049 | 11137 ft | 292 kts | 196° |
| 2026-04-26 10:51 | 56.53864 | 37.48507 | 10714 ft | 285 kts | 196° |
| 2026-04-26 10:51 | 56.51931 | 37.47747 | 10516 ft | 283 kts | 196° |
| 2026-04-26 10:52 | 56.49993 | 37.47126 | 10303 ft | 287 kts | 182° |
| 2026-04-26 10:52 | 56.48003 | 37.47665 | 10054 ft | 291 kts | 170° |
| 2026-04-26 10:52 | 56.46028 | 37.48496 | 9769 ft | 292 kts | 169° |
| 2026-04-26 10:52 | 56.44054 | 37.49332 | 9499 ft | 292 kts | 169° |
| 2026-04-26 10:53 | 56.42076 | 37.50148 | 9247 ft | 292 kts | 169° |
| 2026-04-26 10:53 | 56.40094 | 37.50944 | 8933 ft | 290 kts | 170° |
| 2026-04-26 10:53 | 56.38142 | 37.51713 | 8589 ft | 285 kts | 170° |
| 2026-04-26 10:54 | 56.34339 | 37.53183 | 7867 ft | 273 kts | 170° |
| 2026-04-26 10:54 | 56.32500 | 37.53887 | 7515 ft | 268 kts | 170° |
| 2026-04-26 10:54 | 56.30720 | 37.54564 | 7169 ft | 263 kts | 170° |
| 2026-04-26 10:54 | 56.28942 | 37.55240 | 6845 ft | 257 kts | 170° |
| 2026-04-26 10:55 | 56.27215 | 37.55895 | 6558 ft | 251 kts | 171° |
| 2026-04-26 10:55 | 56.25521 | 37.56538 | 6280 ft | 246 kts | 171° |
| 2026-04-26 10:55 | 56.23854 | 37.57168 | 6003 ft | 244 kts | 171° |
| 2026-04-26 10:55 | 56.22202 | 37.57791 | 5722 ft | 242 kts | 171° |
| 2026-04-26 10:56 | 56.20571 | 37.58415 | 5502 ft | 237 kts | 168° |
| 2026-04-26 10:56 | 56.19131 | 37.59809 | 5278 ft | 239 kts | 138° |
| 2026-04-26 10:56 | 56.17964 | 37.61945 | 5138 ft | 241 kts | 135° |
| 2026-04-26 10:56 | 56.16800 | 37.64105 | 5000 ft | 240 kts | 135° |
| 2026-04-26 10:57 | 56.15639 | 37.66251 | 4825 ft | 239 kts | 135° |
| 2026-04-26 10:57 | 56.14481 | 37.68383 | 4650 ft | 239 kts | 135° |
| 2026-04-26 10:57 | 56.13336 | 37.70485 | 4475 ft | 238 kts | 135° |
| 2026-04-26 10:57 | 56.12174 | 37.72612 | 4301 ft | 238 kts | 136° |
| 2026-04-26 10:58 | 56.11015 | 37.74733 | 4134 ft | 239 kts | 136° |
| 2026-04-26 10:58 | 56.09742 | 37.76602 | 3936 ft | 237 kts | 157° |
| 2026-04-26 10:58 | 56.08154 | 37.77068 | 3791 ft | 232 kts | 188° |
| 2026-04-26 10:58 | 56.06613 | 37.76422 | 3774 ft | 223 kts | 200° |
| 2026-04-26 10:59 | 56.05138 | 37.75559 | 3775 ft | 223 kts | 201° |
| 2026-04-26 10:59 | 56.03690 | 37.74703 | 3751 ft | 212 kts | 201° |
| 2026-04-26 10:59 | 56.02458 | 37.73527 | 3710 ft | 193 kts | 232° |
| 2026-04-26 10:59 | 56.01900 | 37.71427 | 3658 ft | 190 kts | 251° |
| 2026-04-26 11:00 | 56.01413 | 37.69170 | 3391 ft | 195 kts | 251° |
| 2026-04-26 11:00 | 56.00992 | 37.66840 | 3123 ft | 197 kts | 255° |
| 2026-04-26 11:00 | 56.00625 | 37.64506 | 2868 ft | 195 kts | 256° |
| 2026-04-26 11:00 | 56.00271 | 37.62178 | 2604 ft | 190 kts | 256° |
| 2026-04-26 11:01 | 55.99935 | 37.59962 | 2330 ft | 180 kts | 256° |
| 2026-04-26 11:01 | 55.99610 | 37.57827 | 2055 ft | 180 kts | 256° |
| 2026-04-26 11:01 | 55.99290 | 37.55721 | 1831 ft | 170 kts | 256° |
| 2026-04-26 11:01 | 55.98996 | 37.53777 | 1609 ft | 158 kts | 257° |
| 2026-04-26 11:02 | 55.98722 | 37.51976 | 1415 ft | 144 kts | 257° |
| 2026-04-26 11:02 | 55.98469 | 37.50291 | 1287 ft | 138 kts | 256° |
| 2026-04-26 11:02 | 55.98218 | 37.48628 | 1158 ft | 139 kts | 257° |
| 2026-04-26 11:02 | 55.97966 | 37.46956 | 1018 ft | 140 kts | 256° |
| 2026-04-26 11:03 | 55.97711 | 37.45272 | 808 ft | 141 kts | 257° |
| 2026-04-26 11:03 | 55.97460 | 37.43599 | 651 ft | 132 kts | 257° |
| 2026-04-26 11:03 | 55.97245 | 37.42169 | 638 ft | 101 kts | 254° |
| 2026-04-26 11:03 | 55.97103 | 37.41219 | 639 ft | 58 kts | 255° |
| 2026-04-26 11:04 | 55.97015 | 37.40620 | 638 ft | 45 kts | 255° |
| 2026-04-26 11:04 | 55.96957 | 37.40236 | 640 ft | 20 kts | 255° |
| 2026-04-26 11:04 | 55.96955 | 37.40076 | 640 ft | 12 kts | 307° |
| 2026-04-26 11:04 | 55.97028 | 37.40025 | 638 ft | 11 kts | 346° |
| 2026-04-26 11:05 | 55.97105 | 37.39989 | 641 ft | 11 kts | 345° |
| 2026-04-26 11:05 | 55.97183 | 37.39952 | 642 ft | 13 kts | 345° |
| 2026-04-26 11:05 | 55.97269 | 37.39910 | 642 ft | 9 kts | 345° |
| 2026-04-26 11:05 | 55.97330 | 37.39904 | 639 ft | 9 kts | 26° |
| 2026-04-26 11:06 | 55.97357 | 37.39998 | 640 ft | 9 kts | 76° |
| 2026-04-26 11:06 | 55.97373 | 37.40109 | 642 ft | 11 kts | 75° |
| 2026-04-26 11:06 | 55.97398 | 37.40271 | 640 ft | 18 kts | 75° |
| 2026-04-26 11:06 | 55.97437 | 37.40533 | 643 ft | 25 kts | 75° |
| 2026-04-26 11:07 | 55.97480 | 37.40823 | 642 ft | 23 kts | 75° |
| 2026-04-26 11:07 | 55.97518 | 37.41075 | 646 ft | 23 kts | 75° |
| 2026-04-26 11:07 | 55.97558 | 37.41341 | 639 ft | 22 kts | 75° |
| 2026-04-26 11:07 | 55.97589 | 37.41547 | 642 ft | 9 kts | 71° |
| 2026-04-26 11:08 | 55.97637 | 37.41599 | 646 ft | 9 kts | 354° |
| 2026-04-26 11:08 | 55.97688 | 37.41631 | 645 ft | 8 kts | 58° |
| 2026-04-26 11:08 | 55.97727 | 37.41702 | 638 ft | 8 kts | 14° |
| 2026-04-26 11:08 | 55.97782 | 37.41722 | 640 ft | 7 kts | 11° |
| 2026-04-26 11:09 | 55.97795 | 37.41726 | 642 ft | 0 kts | 11° |